Time;durP1;ratioP1;P1;durP2;ratioP2;P2;SDS_P1;SDS_P2;PMS_P1;PMS_P2;Temp;Humidity;BMP_temperature;BMP_pressure;BME280_temperature;BME280_humidity;BME280_pressure;Samples;Min_cycle;Max_cycle;Signal;HPM_P1;HPM_P2
2023/09/22 00:00:47;;;;;;;27.15;9.00;;;22.70;65.70;;;;;;5133559;27;20102;-55
2023/09/22 00:03:13;;;;;;;25.58;8.40;;;22.70;65.70;;;;;;5133512;27;20111;-51
2023/09/22 00:05:39;;;;;;;27.30;8.68;;;22.70;65.70;;;;;;5133436;27;20027;-54
2023/09/22 00:08:06;;;;;;;25.35;8.10;;;22.70;65.70;;;;;;5133406;27;20027;-55
2023/09/22 00:10:33;;;;;;;28.92;8.75;;;22.70;65.80;;;;;;5133308;27;20107;-55
2023/09/22 00:12:59;;;;;;;27.45;8.10;;;22.70;65.80;;;;;;5133095;27;20031;-55
2023/09/22 00:15:27;;;;;;;27.23;8.15;;;22.70;65.80;;;;;;5133254;27;20042;-53
2023/09/22 00:17:53;;;;;;;26.27;8.75;;;22.70;65.80;;;;;;5133151;27;20037;-53
2023/09/22 00:20:20;;;;;;;34.17;9.55;;;22.70;65.80;;;;;;5133205;27;20046;-53
2023/09/22 00:22:46;;;;;;;29.90;8.77;;;22.70;65.80;;;;;;5132783;27;20110;-54
2023/09/22 00:25:13;;;;;;;23.65;8.70;;;22.70;65.90;;;;;;5132423;27;20113;-52
2023/09/22 00:27:39;;;;;;;27.42;8.55;;;22.70;65.70;;;;;;5132974;27;20031;-55
2023/09/22 00:30:05;;;;;;;25.35;8.98;;;22.70;65.80;;;;;;5132665;27;20027;-55
2023/09/22 00:32:33;;;;;;;24.58;8.15;;;22.60;65.80;;;;;;5132864;27;20031;-54
2023/09/22 00:34:59;;;;;;;24.08;8.07;;;22.60;65.70;;;;;;5114612;27;20031;-52
2023/09/22 00:37:25;;;;;;;22.05;7.63;;;22.70;65.80;;;;;;5133161;27;20049;-54
2023/09/22 00:39:50;;;;;;;24.42;7.85;;;22.70;65.80;;;;;;5132524;27;20035;-53
2023/09/22 00:42:16;;;;;;;24.77;8.30;;;22.60;65.70;;;;;;5132750;27;20027;-55
2023/09/22 00:44:42;;;;;;;23.08;8.65;;;22.60;65.70;;;;;;5132777;27;20102;-52
2023/09/22 00:47:11;;;;;;;23.02;7.72;;;22.70;65.80;;;;;;5132715;27;20616;-50
2023/09/22 00:49:37;;;;;;;23.77;8.13;;;22.60;65.70;;;;;;5114072;27;20490;-54
2023/09/22 00:52:03;;;;;;;20.95;7.82;;;22.70;66.40;;;;;;5132579;27;20027;-55
2023/09/22 00:54:31;;;;;;;20.35;8.25;;;22.70;65.90;;;;;;5132733;27;20027;-51
2023/09/22 00:56:57;;;;;;;26.13;8.23;;;22.70;65.90;;;;;;5132941;27;20027;-55
2023/09/22 00:59:24;;;;;;;22.58;7.95;;;22.70;66.00;;;;;;5132266;27;20042;-55
2023/09/22 01:01:50;;;;;;;24.83;8.20;;;22.70;65.90;;;;;;5132624;27;20015;-52
2023/09/22 01:04:19;;;;;;;29.40;8.68;;;22.70;66.00;;;;;;5114233;28;20065;-55
2023/09/22 01:06:46;;;;;;;21.73;7.13;;;22.70;66.00;;;;;;5132486;28;20034;-54
2023/09/22 01:09:13;;;;;;;23.05;7.80;;;22.70;66.00;;;;;;5132367;28;20031;-53
2023/09/22 01:11:40;;;;;;;21.98;7.47;;;22.70;66.00;;;;;;5114186;28;20497;-54
2023/09/22 01:14:06;;;;;;;21.58;7.57;;;22.70;66.00;;;;;;5132503;28;20122;-55
2023/09/22 01:16:32;;;;;;;23.45;7.85;;;22.70;66.00;;;;;;5132598;28;20420;-52
2023/09/22 01:18:59;;;;;;;18.98;7.38;;;22.70;66.00;;;;;;5132063;28;20027;-55
2023/09/22 01:21:31;;;;;;;23.00;7.75;;;22.70;66.00;;;;;;5114089;28;20027;-50
2023/09/22 01:23:59;;;;;;;18.73;6.95;;;22.70;66.00;;;;;;5113968;28;20418;-53
2023/09/22 01:26:25;;;;;;;16.90;6.28;;;22.70;66.00;;;;;;5113919;28;20080;-52
2023/09/22 01:28:52;;;;;;;18.48;6.85;;;22.70;66.20;;;;;;5132028;28;20043;-50
2023/09/22 01:31:18;;;;;;;17.60;6.97;;;22.70;65.90;;;;;;5132241;28;20035;-54
2023/09/22 01:33:46;;;;;;;18.38;6.80;;;22.70;66.00;;;;;;5132188;28;20027;-55
2023/09/22 01:36:13;;;;;;;17.08;6.95;;;22.70;66.00;;;;;;5116343;27;20034;-52
2023/09/22 01:38:39;;;;;;;17.98;6.43;;;22.70;66.00;;;;;;5136198;27;20031;-52
2023/09/22 01:41:06;;;;;;;17.15;6.57;;;22.60;65.90;;;;;;5136407;27;20069;-54
2023/09/22 01:43:32;;;;;;;18.20;6.38;;;22.70;66.00;;;;;;5136682;27;20019;-53
2023/09/22 01:45:58;;;;;;;15.20;6.88;;;22.70;66.10;;;;;;5136161;27;20448;-51
2023/09/22 01:48:24;;;;;;;19.10;6.40;;;22.70;66.00;;;;;;5117697;27;20034;-52
2023/09/22 01:50:50;;;;;;;15.88;6.53;;;22.70;66.00;;;;;;5117789;27;20485;-55
2023/09/22 01:53:16;;;;;;;16.83;6.50;;;22.70;65.90;;;;;;5136085;27;20110;-54
2023/09/22 01:55:42;;;;;;;16.88;6.07;;;22.70;65.90;;;;;;5136070;27;20031;-51
2023/09/22 01:58:08;;;;;;;14.48;6.05;;;22.70;65.90;;;;;;5117440;27;20181;-55
2023/09/22 02:00:35;;;;;;;17.70;6.55;;;22.70;65.80;;;;;;5117747;27;20039;-52
2023/09/22 02:03:02;;;;;;;13.27;6.10;;;22.70;65.80;;;;;;5135828;27;20026;-55
2023/09/22 02:05:27;;;;;;;15.73;5.88;;;22.70;65.80;;;;;;5135798;27;20023;-55
2023/09/22 02:07:53;;;;;;;16.77;6.60;;;22.70;65.70;;;;;;5135576;27;20129;-53
2023/09/22 02:10:20;;;;;;;16.98;6.68;;;22.70;65.70;;;;;;5117444;27;20054;-52
2023/09/22 02:12:46;;;;;;;15.88;6.30;;;22.70;65.60;;;;;;5135643;27;20027;-55
2023/09/22 02:15:12;;;;;;;13.45;6.22;;;22.70;65.70;;;;;;5117237;27;20106;-54
2023/09/22 02:17:39;;;;;;;11.45;5.47;;;22.70;65.70;;;;;;5135647;27;20068;-54
2023/09/22 02:20:22;;;;;;;16.23;6.45;;;22.70;65.80;;;;;;5135343;27;20539;-54
2023/09/22 02:22:54;;;;;;;10.82;5.55;;;22.70;65.60;;;;;;5135424;27;20110;-51
2023/09/22 02:25:21;;;;;;;13.55;5.57;;;22.70;65.70;;;;;;5135542;27;20104;-55
2023/09/22 02:27:48;;;;;;;9.90;5.38;;;22.70;65.60;;;;;;5135344;27;20494;-54
2023/09/22 02:30:15;;;;;;;13.60;5.80;;;22.70;65.60;;;;;;5135206;27;20061;-55
2023/09/22 02:32:43;;;;;;;13.23;6.03;;;22.70;65.60;;;;;;5135242;27;20023;-55
2023/09/22 02:35:09;;;;;;;15.73;6.05;;;22.70;65.70;;;;;;5099914;27;20055;-53
2023/09/22 02:37:36;;;;;;;14.23;5.88;;;22.70;65.60;;;;;;5135144;27;20073;-55
2023/09/22 02:40:05;;;;;;;10.32;5.18;;;22.80;65.70;;;;;;5134643;27;20027;-55
2023/09/22 02:42:31;;;;;;;18.02;6.07;;;22.70;66.30;;;;;;5116996;27;20045;-55
2023/09/22 02:44:56;;;;;;;13.98;5.43;;;22.70;65.70;;;;;;5135003;27;20024;-55
2023/09/22 02:47:22;;;;;;;11.70;5.65;;;22.70;65.70;;;;;;5134307;27;20447;-53
2023/09/22 02:49:49;;;;;;;13.70;5.72;;;22.70;65.90;;;;;;5116395;27;20562;-52
2023/09/22 02:52:15;;;;;;;8.65;4.97;;;22.70;65.80;;;;;;5134827;27;20110;-54
2023/09/22 02:54:41;;;;;;;11.15;5.85;;;22.70;65.80;;;;;;5134801;27;20088;-53
2023/09/22 02:57:07;;;;;;;11.70;6.00;;;22.70;65.90;;;;;;5116467;27;20102;-55
2023/09/22 02:59:33;;;;;;;11.32;5.35;;;22.70;65.90;;;;;;5134516;27;20577;-55
2023/09/22 03:01:58;;;;;;;11.75;5.75;;;22.70;65.80;;;;;;5116468;27;20027;-49
2023/09/22 03:04:24;;;;;;;15.05;5.70;;;22.70;65.80;;;;;;5134722;27;20027;-53
2023/09/22 03:06:50;;;;;;;12.77;5.38;;;22.70;66.00;;;;;;5116401;27;20049;-54
2023/09/22 03:09:17;;;;;;;11.48;5.25;;;22.70;66.00;;;;;;5115835;27;20106;-54
2023/09/22 03:11:43;;;;;;;11.18;5.05;;;22.60;65.90;;;;;;5116318;27;20482;-54
2023/09/22 03:14:09;;;;;;;9.80;5.63;;;22.70;66.00;;;;;;5116192;27;20402;-54
2023/09/22 03:16:35;;;;;;;12.10;5.38;;;22.70;66.00;;;;;;5116104;27;20035;-52
2023/09/22 03:19:02;;;;;;;10.80;5.25;;;22.60;66.00;;;;;;5115682;27;20494;-50
2023/09/22 03:21:28;;;;;;;8.23;5.10;;;22.70;66.10;;;;;;5134340;27;20034;-51
2023/09/22 03:23:54;;;;;;;10.88;5.30;;;22.60;66.00;;;;;;5133779;22;20503;-43
2023/09/22 03:26:21;;;;;;;9.60;4.90;;;22.70;66.10;;;;;;5095195;28;20023;-44
2023/09/22 03:28:48;;;;;;;10.63;5.38;;;22.60;66.00;;;;;;5095023;28;20032;-49
2023/09/22 03:31:19;;;;;;;10.02;5.10;;;22.60;66.10;;;;;;5095637;28;20034;-44
2023/09/22 03:33:48;;;;;;;10.32;5.22;;;22.60;66.10;;;;;;5095280;28;20076;-50
2023/09/22 03:36:15;;;;;;;10.02;5.00;;;22.60;66.10;;;;;;5095265;28;20031;-47
2023/09/22 03:38:45;;;;;;;9.98;5.07;;;22.60;66.20;;;;;;5094955;28;20540;-49
2023/09/22 03:41:12;;;;;;;13.13;4.95;;;22.60;66.20;;;;;;5113368;28;20035;-46
2023/09/22 03:43:38;;;;;;;11.07;5.10;;;22.60;66.20;;;;;;5095174;28;20031;-46
2023/09/22 03:46:04;;;;;;;10.35;4.90;;;22.60;66.30;;;;;;5113521;28;20111;-45
2023/09/22 03:48:30;;;;;;;10.35;4.43;;;22.60;66.30;;;;;;5112967;28;20059;-47
2023/09/22 03:50:56;;;;;;;7.80;4.43;;;22.60;66.50;;;;;;5095026;28;20024;-48
2023/09/22 03:53:22;;;;;;;9.32;5.05;;;22.60;66.40;;;;;;5094872;28;20490;-49
2023/09/22 03:55:49;;;;;;;8.82;4.50;;;22.60;66.40;;;;;;5113022;28;20115;-46
2023/09/22 03:58:16;;;;;;;8.50;4.22;;;22.60;66.40;;;;;;5094198;28;20497;-43
2023/09/22 04:00:43;;;;;;;7.07;4.25;;;22.60;66.40;;;;;;5094217;28;20031;-50
2023/09/22 04:03:09;;;;;;;6.60;4.28;;;22.60;66.60;;;;;;5094834;28;20035;-49
2023/09/22 04:05:39;;;;;;;10.77;4.40;;;22.60;66.60;;;;;;5094827;28;20055;-47
2023/09/22 04:08:05;;;;;;;8.23;4.18;;;22.60;66.50;;;;;;5112593;28;20062;-44
2023/09/22 04:10:32;;;;;;;6.72;3.85;;;22.60;66.70;;;;;;5112746;28;20506;-45
2023/09/22 04:12:58;;;;;;;8.27;3.90;;;22.60;67.20;;;;;;5077556;28;20506;-46
2023/09/22 04:15:24;;;;;;;8.43;4.13;;;22.60;66.60;;;;;;5112738;28;20376;-46
2023/09/22 04:17:51;;;;;;;7.55;4.00;;;22.60;66.70;;;;;;5112543;28;20027;-47
2023/09/22 04:20:28;;;;;;;7.63;3.75;;;22.60;66.70;;;;;;5112551;28;20110;-48
2023/09/22 04:22:58;;;;;;;6.88;3.78;;;22.60;66.80;;;;;;5112428;28;20115;-49
2023/09/22 04:25:31;;;;;;;7.63;3.78;;;22.60;66.60;;;;;;5112650;28;20371;-48
2023/09/22 04:28:07;;;;;;;7.38;3.65;;;22.60;66.70;;;;;;5112313;28;20073;-45
2023/09/22 04:30:41;;;;;;;5.47;3.42;;;22.60;66.70;;;;;;5112750;28;20486;-49
2023/09/22 04:33:07;;;;;;;7.60;3.50;;;22.60;66.70;;;;;;5112423;28;20510;-50
2023/09/22 04:35:32;;;;;;;6.10;3.40;;;22.60;66.70;;;;;;5094512;28;20119;-50
2023/09/22 04:37:59;;;;;;;5.75;3.35;;;22.60;66.70;;;;;;5112060;28;20133;-50
2023/09/22 04:40:29;;;;;;;6.38;3.60;;;22.60;66.90;;;;;;5112276;28;20024;-46
2023/09/22 04:42:55;;;;;;;10.05;3.72;;;22.60;67.00;;;;;;5112217;28;20557;-48
2023/09/22 04:45:22;;;;;;;7.53;3.10;;;22.60;66.60;;;;;;5112180;28;20024;-46
2023/09/22 04:47:50;;;;;;;6.18;3.53;;;22.60;66.90;;;;;;5112224;28;20024;-50
2023/09/22 04:50:17;;;;;;;6.55;3.58;;;22.60;67.00;;;;;;5112312;28;20097;-44
2023/09/22 04:52:47;;;;;;;4.70;3.25;;;22.60;66.70;;;;;;5112138;28;20043;-45
2023/09/22 04:55:16;;;;;;;6.70;3.13;;;22.60;66.80;;;;;;5112240;28;20042;-53
2023/09/22 04:57:42;;;;;;;5.13;3.00;;;22.60;66.80;;;;;;5094091;28;20088;-49
2023/09/22 05:00:15;;;;;;;5.97;3.30;;;22.60;67.10;;;;;;5111677;28;20483;-45
2023/09/22 05:02:44;;;;;;;6.25;3.40;;;22.60;67.00;;;;;;5112009;28;20024;-47
2023/09/22 05:05:16;;;;;;;6.80;2.97;;;22.60;67.00;;;;;;5093987;28;20011;-47
2023/09/22 05:07:42;;;;;;;6.30;3.00;;;22.60;67.00;;;;;;5111944;28;20369;-44
2023/09/22 05:10:08;;;;;;;6.15;3.03;;;22.60;67.00;;;;;;5111478;28;20115;-44
2023/09/22 05:12:35;;;;;;;6.18;3.42;;;22.60;66.90;;;;;;5111833;28;20028;-47
2023/09/22 05:15:02;;;;;;;7.43;3.15;;;22.70;67.00;;;;;;5111748;28;20038;-45
2023/09/22 05:17:29;;;;;;;6.15;3.00;;;22.70;67.00;;;;;;5112237;28;20043;-45
2023/09/22 05:19:55;;;;;;;4.72;2.95;;;22.70;67.00;;;;;;5111491;28;20077;-48
2023/09/22 05:22:21;;;;;;;5.03;2.85;;;22.70;66.90;;;;;;5112231;28;20424;-44
2023/09/22 05:24:47;;;;;;;4.88;3.00;;;22.60;66.90;;;;;;5111712;28;20062;-47
2023/09/22 05:27:14;;;;;;;4.82;2.70;;;22.70;67.00;;;;;;5111735;28;20609;-50
2023/09/22 05:29:41;;;;;;;5.50;3.03;;;22.70;67.00;;;;;;5111486;28;20457;-45
2023/09/22 05:32:08;;;;;;;5.93;2.83;;;22.70;67.00;;;;;;5112112;28;20082;-43
2023/09/22 05:34:34;;;;;;;7.65;2.92;;;22.60;67.00;;;;;;5111827;28;20035;-43
2023/09/22 05:37:03;;;;;;;8.55;2.95;;;22.70;67.40;;;;;;5111652;28;20024;-46
2023/09/22 05:39:28;;;;;;;5.68;3.00;;;22.70;67.30;;;;;;5111279;28;20441;-48
2023/09/22 05:41:54;;;;;;;5.63;2.88;;;22.70;67.20;;;;;;5111640;28;20027;-43
2023/09/22 05:44:20;;;;;;;6.30;3.00;;;22.70;67.30;;;;;;5111433;28;20477;-46
2023/09/22 05:46:49;;;;;;;4.90;2.60;;;22.70;67.20;;;;;;5111685;28;20062;-47
2023/09/22 05:49:15;;;;;;;4.55;2.47;;;22.70;67.40;;;;;;5111314;28;20161;-44
2023/09/22 05:51:41;;;;;;;5.88;2.65;;;22.70;67.40;;;;;;5111688;28;20100;-43
2023/09/22 05:54:08;;;;;;;5.38;2.58;;;22.70;67.50;;;;;;5111128;28;20019;-45
2023/09/22 05:56:34;;;;;;;4.38;2.70;;;22.60;67.40;;;;;;5111564;28;20039;-48
2023/09/22 05:59:01;;;;;;;4.55;2.70;;;22.60;67.40;;;;;;5111097;28;20509;-44
2023/09/22 06:01:27;;;;;;;6.22;2.60;;;22.60;67.50;;;;;;5111514;28;20028;-45
2023/09/22 06:03:53;;;;;;;8.10;3.50;;;22.60;67.50;;;;;;5111378;28;20039;-44
2023/09/22 06:06:19;;;;;;;6.28;3.10;;;22.60;67.50;;;;;;5111433;28;20117;-45
2023/09/22 06:08:46;;;;;;;5.85;2.78;;;22.60;67.50;;;;;;5111206;28;20031;-46
2023/09/22 06:11:13;;;;;;;6.97;3.03;;;22.60;67.60;;;;;;5111420;28;20057;-43
2023/09/22 06:13:40;;;;;;;4.90;2.65;;;22.60;67.50;;;;;;5111406;28;20036;-44
2023/09/22 06:16:06;;;;;;;5.68;2.90;;;22.60;67.50;;;;;;5111405;28;20055;-47
2023/09/22 06:18:32;;;;;;;6.88;2.90;;;22.70;67.60;;;;;;5110966;28;20622;-48
2023/09/22 06:21:00;;;;;;;8.55;3.33;;;22.70;67.50;;;;;;5111252;28;20453;-48
2023/09/22 06:23:27;;;;;;;9.15;3.13;;;22.60;67.60;;;;;;5113468;28;20044;-45
2023/09/22 06:26:00;;;;;;;8.00;3.20;;;22.60;67.50;;;;;;5096650;28;20039;-47
2023/09/22 06:28:25;;;;;;;5.63;3.17;;;22.60;67.60;;;;;;5114617;28;20081;-47
2023/09/22 06:30:52;;;;;;;5.78;3.25;;;22.60;67.50;;;;;;5114170;28;20031;-43
2023/09/22 06:33:18;;;;;;;6.38;3.25;;;22.60;67.40;;;;;;5114775;28;20454;-45
2023/09/22 06:35:45;;;;;;;8.73;3.45;;;22.60;67.60;;;;;;5114840;28;20019;-45
2023/09/22 06:38:11;;;;;;;6.32;3.25;;;22.60;67.80;;;;;;5114133;28;20020;-43
2023/09/22 06:40:37;;;;;;;6.72;2.75;;;22.60;67.70;;;;;;5114521;28;20030;-45
2023/09/22 06:43:04;;;;;;;7.95;3.67;;;22.60;67.80;;;;;;5114455;28;20084;-43
2023/09/22 06:45:33;;;;;;;9.45;3.45;;;22.60;67.60;;;;;;5114602;28;20055;-47
2023/09/22 06:48:09;;;;;;;6.53;3.05;;;22.60;67.60;;;;;;5114261;28;20020;-43
2023/09/22 06:50:37;;;;;;;5.78;3.08;;;22.60;67.70;;;;;;5114376;28;20027;-44
2023/09/22 06:53:04;;;;;;;6.55;3.00;;;22.60;67.60;;;;;;5096231;28;20023;-45
2023/09/22 06:55:33;;;;;;;6.68;3.22;;;22.60;67.70;;;;;;5114331;28;20032;-47
2023/09/22 06:57:59;;;;;;;10.75;3.63;;;22.60;68.30;;;;;;5110660;28;20031;-49
2023/09/22 07:00:28;;;;;;;6.60;3.10;;;22.60;67.90;;;;;;5110521;28;20032;-50
2023/09/22 07:02:55;;;;;;;15.32;3.47;;;22.60;67.90;;;;;;5111146;28;20080;-52
2023/09/22 07:05:21;;;;;;;7.10;2.50;;;22.50;68.40;;;;;;5110718;28;20024;-48
2023/09/22 07:07:52;;;;;;;10.93;2.67;;;22.50;69.00;;;;;;5110946;28;20401;-51
2023/09/22 07:10:19;;;;;;;11.45;2.63;;;22.50;69.60;;;;;;5110932;28;20034;-50
2023/09/22 07:12:45;;;;;;;10.65;2.70;;;22.50;69.40;;;;;;5110943;28;20036;-48
2023/09/22 07:15:11;;;;;;;13.95;2.50;;;22.50;69.10;;;;;;5111437;28;20505;-54
2023/09/22 07:17:37;;;;;;;6.57;2.83;;;22.60;69.30;;;;;;5111305;28;20065;-50
2023/09/22 07:20:05;;;;;;;9.93;2.55;;;22.50;69.60;;;;;;5110888;28;20036;-53
2023/09/22 07:22:33;;;;;;;9.88;2.30;;;22.60;70.30;;;;;;5111202;28;20027;-51
2023/09/22 07:24:59;;;;;;;7.28;2.28;;;22.60;70.10;;;;;;5111468;28;20015;-50
2023/09/22 07:27:25;;;;;;;7.90;2.00;;;22.60;70.20;;;;;;5111384;28;20702;-46
2023/09/22 07:29:51;;;;;;;3.83;1.95;;;22.60;70.40;;;;;;5110774;28;20108;-45
2023/09/22 07:32:18;;;;;;;10.77;2.55;;;22.60;69.70;;;;;;5111172;28;20450;-47
2023/09/22 07:34:45;;;;;;;7.22;2.67;;;22.60;70.40;;;;;;5110530;28;20035;-51
2023/09/22 07:37:12;;;;;;;10.85;3.17;;;22.70;70.30;;;;;;5111304;28;20034;-48
2023/09/22 07:39:41;;;;;;;8.13;2.40;;;22.70;70.30;;;;;;5110575;28;20024;-49
2023/09/22 07:42:09;;;;;;;8.02;2.40;;;22.80;70.20;;;;;;5111452;28;20023;-46
2023/09/22 07:44:35;;;;;;;13.35;2.67;;;22.80;69.90;;;;;;5110628;28;20026;-51
2023/09/22 07:47:03;;;;;;;12.13;2.72;;;22.80;70.40;;;;;;5111110;28;20032;-45
2023/09/22 07:49:29;;;;;;;10.50;2.50;;;22.80;70.90;;;;;;5110462;28;20482;-47
2023/09/22 07:51:55;;;;;;;7.20;2.88;;;22.90;70.10;;;;;;5110791;28;20027;-47
2023/09/22 07:54:23;;;;;;;8.02;2.75;;;22.90;70.20;;;;;;5110286;28;20031;-46
2023/09/22 07:56:49;;;;;;;10.98;2.90;;;22.90;70.70;;;;;;5092491;28;20031;-45
2023/09/22 07:59:16;;;;;;;12.18;2.63;;;22.80;70.10;;;;;;5110195;28;20104;-51
2023/09/22 08:01:43;;;;;;;13.20;3.03;;;22.80;70.10;;;;;;5110573;28;20027;-52
2023/09/22 08:04:10;;;;;;;10.27;3.20;;;22.90;70.20;;;;;;5110606;28;20433;-51
2023/09/22 08:06:36;;;;;;;11.68;3.33;;;22.90;70.30;;;;;;5110707;28;20019;-52
2023/09/22 08:09:05;;;;;;;12.65;3.97;;;22.90;70.40;;;;;;5110191;28;20023;-51
2023/09/22 08:11:32;;;;;;;14.93;3.22;;;22.80;70.10;;;;;;5110365;28;20059;-52
2023/09/22 08:14:01;;;;;;;13.77;3.75;;;22.80;70.50;;;;;;5109491;28;20050;-54
2023/09/22 08:16:27;;;;;;;10.10;2.55;;;22.80;70.70;;;;;;5091887;28;20492;-53
2023/09/22 08:18:54;;;;;;;8.25;2.10;;;22.70;71.10;;;;;;5109916;28;20169;-52
2023/09/22 08:21:21;;;;;;;9.50;2.63;;;22.70;71.10;;;;;;5092463;28;20394;-52
2023/09/22 08:23:48;;;;;;;10.50;2.33;;;22.70;70.80;;;;;;5109995;28;20084;-53
2023/09/22 08:26:17;;;;;;;10.38;3.08;;;22.70;70.60;;;;;;5110257;28;20068;-49
2023/09/22 08:28:50;;;;;;;6.90;2.58;;;23.00;71.70;;;;;;5091511;28;20032;-52
2023/09/22 08:31:16;;;;;;;9.88;2.90;;;23.00;71.50;;;;;;5110158;28;20032;-54
2023/09/22 08:33:41;;;;;;;26.08;3.83;;;22.90;71.50;;;;;;5110002;28;20149;-47
2023/09/22 08:36:08;;;;;;;32.50;4.97;;;22.90;72.10;;;;;;5110443;28;20051;-53
2023/09/22 08:38:34;;;;;;;12.57;4.20;;;22.80;71.80;;;;;;5108876;28;20039;-53
2023/09/22 08:41:04;;;;;;;9.18;3.40;;;22.80;71.20;;;;;;5109764;28;20394;-51
2023/09/22 08:43:32;;;;;;;20.80;4.65;;;22.80;71.10;;;;;;5109731;28;20188;-53
2023/09/22 08:46:00;;;;;;;9.45;3.80;;;22.80;71.60;;;;;;5109042;28;20419;-54
2023/09/22 08:48:27;;;;;;;8.40;4.22;;;22.70;71.10;;;;;;5107506;28;20331;-54
2023/09/22 08:50:54;;;;;;;12.35;4.40;;;22.70;70.90;;;;;;5108967;28;20152;-51
2023/09/22 08:53:20;;;;;;;7.13;3.60;;;22.70;70.70;;;;;;5108948;28;20488;-54
2023/09/22 08:55:49;;;;;;;9.23;3.05;;;22.70;71.10;;;;;;5109605;28;20509;-51
2023/09/22 08:58:19;;;;;;;12.27;3.45;;;22.60;71.40;;;;;;5109484;28;20043;-51
2023/09/22 09:00:51;;;;;;;12.57;3.35;;;22.60;71.80;;;;;;5109520;28;20545;-49
2023/09/22 09:03:21;;;;;;;8.20;2.20;;;22.60;71.70;;;;;;5109272;28;20474;-47
2023/09/22 09:05:49;;;;;;;9.38;2.72;;;22.60;71.30;;;;;;5109362;28;20058;-53
2023/09/22 09:08:17;;;;;;;7.68;2.20;;;22.70;71.40;;;;;;5108224;28;20039;-46
2023/09/22 09:10:46;;;;;;;11.65;2.50;;;22.70;71.50;;;;;;5070176;28;20108;-48
2023/09/22 09:13:27;;;;;;;7.60;2.60;;;22.70;71.30;;;;;;5105095;28;20824;-48
2023/09/22 09:15:55;;;;;;;9.05;2.25;;;22.70;71.40;;;;;;5108935;28;20435;-46
2023/09/22 09:18:22;;;;;;;11.98;2.50;;;22.80;71.40;;;;;;5107892;28;20032;-46
2023/09/22 09:21:16;;;;;;;8.60;2.63;;;22.80;72.00;;;;;;5090595;28;20050;-47
2023/09/22 09:23:53;;;;;;;11.40;2.80;;;22.80;71.60;;;;;;5108868;28;20032;-45
2023/09/22 09:26:31;;;;;;;10.70;2.45;;;22.80;71.60;;;;;;5108543;28;20074;-45
2023/09/22 09:28:59;;;;;;;8.13;2.38;;;22.80;71.70;;;;;;5109242;28;20020;-48
2023/09/22 09:31:47;;;;;;;7.75;2.65;;;22.80;71.70;;;;;;5109103;28;20027;-45
2023/09/22 09:34:14;;;;;;;8.45;2.92;;;22.80;71.70;;;;;;5109492;28;20036;-45
2023/09/22 09:36:40;;;;;;;4.60;2.33;;;22.80;71.80;;;;;;5109069;28;20099;-45
2023/09/22 09:39:06;;;;;;;6.78;2.53;;;22.80;71.80;;;;;;5109112;28;20433;-45
2023/09/22 09:41:33;;;;;;;7.18;2.50;;;22.80;71.80;;;;;;5085141;28;20031;-46
2023/09/22 09:44:02;;;;;;;7.63;2.30;;;22.80;71.90;;;;;;5111463;28;20064;-48
2023/09/22 09:46:29;;;;;;;7.25;2.70;;;22.80;72.00;;;;;;5108287;28;20032;-45
2023/09/22 09:48:56;;;;;;;5.65;2.58;;;22.80;72.00;;;;;;5108859;28;20443;-47
2023/09/22 09:51:24;;;;;;;5.10;2.55;;;22.80;72.10;;;;;;5082762;28;20032;-50
2023/09/22 09:54:03;;;;;;;14.57;2.80;;;22.80;72.10;;;;;;5118768;28;20024;-49
2023/09/22 09:56:30;;;;;;;8.60;3.22;;;22.80;72.00;;;;;;5109283;28;20035;-46
2023/09/22 09:58:57;;;;;;;9.00;3.20;;;22.80;72.10;;;;;;5110980;28;20035;-47
2023/09/22 10:01:23;;;;;;;5.53;2.45;;;22.80;72.10;;;;;;5112526;28;20422;-46
2023/09/22 10:03:51;;;;;;;7.78;2.85;;;22.80;72.30;;;;;;5113000;28;20024;-51
2023/09/22 10:06:19;;;;;;;7.43;3.30;;;22.80;72.20;;;;;;5093681;28;20035;-48
2023/09/22 10:08:44;;;;;;;12.00;3.13;;;22.80;72.20;;;;;;5112198;28;20118;-46
2023/09/22 10:11:13;;;;;;;18.38;3.40;;;22.80;72.50;;;;;;5112327;28;20111;-45
2023/09/22 10:13:39;;;;;;;15.55;3.20;;;22.80;72.50;;;;;;5112755;28;20114;-46
2023/09/22 10:16:06;;;;;;;9.55;3.40;;;22.80;72.20;;;;;;5112440;28;20057;-46
2023/09/22 10:18:47;;;;;;;25.10;3.35;;;22.80;72.10;;;;;;5112725;28;20035;-48
2023/09/22 10:21:32;;;;;;;14.55;2.67;;;22.80;71.60;;;;;;5111372;28;20035;-51
2023/09/22 10:24:16;;;;;;;11.88;2.70;;;22.80;71.20;;;;;;5112414;28;20435;-49
2023/09/22 10:27:03;;;;;;;12.05;2.78;;;22.70;70.90;;;;;;5112338;28;20016;-47
2023/09/22 10:29:32;;;;;;;8.13;1.80;;;22.70;70.60;;;;;;5112580;28;20032;-50
2023/09/22 10:32:20;;;;;;;14.82;2.10;;;22.60;70.40;;;;;;5111608;28;20047;-47
2023/09/22 10:35:09;;;;;;;3.63;1.60;;;22.70;70.30;;;;;;5112771;28;20039;-45
2023/09/22 10:37:36;;;;;;;7.38;1.70;;;22.60;70.00;;;;;;5108733;28;20464;-46
2023/09/22 10:40:09;;;;;;;6.85;1.90;;;22.70;70.40;;;;;;5101697;28;20422;-45
2023/09/22 10:42:43;;;;;;;4.70;1.67;;;22.60;69.30;;;;;;5094028;28;20081;-46
2023/09/22 10:45:09;;;;;;;6.53;1.98;;;22.60;69.30;;;;;;5111292;28;20107;-46
2023/09/22 10:47:46;;;;;;;7.43;1.88;;;22.60;69.30;;;;;;5112112;28;20571;-47
2023/09/22 10:50:19;;;;;;;8.55;1.90;;;22.60;69.20;;;;;;5111865;28;20066;-50
2023/09/22 10:52:55;;;;;;;3.22;1.70;;;22.60;69.20;;;;;;5111007;28;20387;-45
2023/09/22 10:55:43;;;;;;;2.58;1.60;;;22.60;69.20;;;;;;5111510;28;20077;-48
2023/09/22 10:58:16;;;;;;;2.70;1.73;;;22.50;69.20;;;;;;5111611;28;20574;-47
2023/09/22 11:00:59;;;;;;;5.00;1.90;;;22.50;69.20;;;;;;5111010;28;20027;-50
2023/09/22 11:03:26;;;;;;;13.98;2.63;;;22.50;69.30;;;;;;5111811;28;20024;-45
2023/09/22 11:06:00;;;;;;;13.73;2.20;;;22.50;69.40;;;;;;5110749;28;20062;-51
2023/09/22 11:08:26;;;;;;;6.22;2.30;;;22.50;69.30;;;;;;5110885;28;20020;-51
2023/09/22 11:10:54;;;;;;;5.00;1.88;;;22.50;69.30;;;;;;5111648;28;20514;-50
2023/09/22 11:13:24;;;;;;;5.80;2.25;;;22.50;69.40;;;;;;5111357;28;20019;-50
2023/09/22 11:15:53;;;;;;;6.25;2.08;;;22.50;69.10;;;;;;5110860;28;20028;-47
2023/09/22 11:18:31;;;;;;;6.32;2.08;;;22.50;68.90;;;;;;5110448;28;20059;-48
2023/09/22 11:21:08;;;;;;;6.20;2.05;;;22.50;69.00;;;;;;5110395;28;20027;-48
2023/09/22 11:23:38;;;;;;;5.95;1.58;;;22.50;68.80;;;;;;5110312;28;20058;-49
2023/09/22 11:26:09;;;;;;;4.45;1.50;;;22.40;68.80;;;;;;5110055;28;20031;-46
2023/09/22 11:28:48;;;;;;;5.38;1.83;;;22.40;68.70;;;;;;5110328;28;20031;-47
2023/09/22 11:31:19;;;;;;;4.85;2.15;;;22.40;68.30;;;;;;5107427;28;20024;-52
2023/09/22 11:33:58;;;;;;;9.60;2.17;;;22.30;68.60;;;;;;5110341;28;20494;-49
2023/09/22 11:36:23;;;;;;;7.43;2.00;;;22.40;68.60;;;;;;5107818;28;20027;-51
2023/09/22 11:38:54;;;;;;;3.22;1.73;;;22.40;68.50;;;;;;5091624;28;20051;-49
2023/09/22 11:41:22;;;;;;;6.38;2.35;;;22.50;68.50;;;;;;5110300;28;20020;-47
2023/09/22 11:43:51;;;;;;;6.03;2.00;;;22.50;68.70;;;;;;5110303;28;20509;-45
2023/09/22 11:46:26;;;;;;;;;;;22.50;68.80;;;;;;5115975;27;20114;-48
2023/09/22 11:49:05;;;;;;;5.60;2.30;;;22.50;68.80;;;;;;5130219;27;19907;-48
2023/09/22 11:51:40;;;;;;;5.15;2.33;;;22.50;68.90;;;;;;5109302;28;20031;-49
2023/09/22 11:54:07;;;;;;;7.07;2.25;;;22.50;69.00;;;;;;5110519;28;20031;-49
2023/09/22 11:56:33;;;;;;;7.88;2.30;;;22.60;69.10;;;;;;5110729;28;20027;-46
2023/09/22 11:59:09;;;;;;;7.90;2.42;;;22.60;69.50;;;;;;5091841;28;20530;-46
2023/09/22 12:01:35;;;;;;;6.10;2.20;;;22.60;69.50;;;;;;5110813;28;20027;-54
2023/09/22 12:04:04;;;;;;;9.50;2.58;;;22.60;69.60;;;;;;5122902;27;20043;-52
2023/09/22 12:06:31;;;;;;;11.87;2.20;;;22.60;69.80;;;;;;5107326;28;20035;-53
2023/09/22 12:08:58;;;;;;;6.05;2.83;;;22.60;69.80;;;;;;5109520;28;20047;-51
2023/09/22 12:11:25;;;;;;;7.18;2.80;;;22.60;69.90;;;;;;5109785;28;20072;-48
2023/09/22 12:13:51;;;;;;;7.00;2.53;;;22.60;69.80;;;;;;5110267;28;20156;-47
2023/09/22 12:16:17;;;;;;;5.05;2.20;;;22.60;70.10;;;;;;5110139;28;20487;-49
2023/09/22 12:18:43;;;;;;;4.85;2.35;;;22.60;70.30;;;;;;5109870;28;20032;-53
2023/09/22 12:21:08;;;;;;;7.18;2.63;;;22.60;70.20;;;;;;5109238;28;20054;-52
2023/09/22 12:23:34;;;;;;;8.05;2.85;;;22.60;70.70;;;;;;5110234;28;20036;-51
2023/09/22 12:26:01;;;;;;;12.98;3.20;;;22.70;71.50;;;;;;5109315;28;20016;-54
2023/09/22 12:28:27;;;;;;;8.98;2.85;;;22.70;71.00;;;;;;5109569;28;20490;-51
2023/09/22 12:30:53;;;;;;;7.15;2.75;;;22.80;71.10;;;;;;5109151;28;20028;-53
2023/09/22 12:33:19;;;;;;;8.32;3.30;;;22.80;71.20;;;;;;5109873;28;20047;-48
2023/09/22 12:35:47;;;;;;;7.40;3.35;;;22.80;71.00;;;;;;5104468;28;20026;-52
2023/09/22 12:38:13;;;;;;;11.90;3.38;;;22.80;71.40;;;;;;5106228;28;20031;-51
2023/09/22 12:40:39;;;;;;;6.68;2.95;;;22.80;71.50;;;;;;5106069;28;20036;-46
2023/09/22 12:43:06;;;;;;;8.30;3.30;;;22.80;71.40;;;;;;5106784;28;20020;-52
2023/09/22 12:45:31;;;;;;;8.23;3.15;;;22.80;71.40;;;;;;5105028;28;20050;-51
2023/09/22 12:47:58;;;;;;;7.82;2.83;;;22.80;71.50;;;;;;5105206;28;20085;-51